CYNR

SPECI CYNR 302353Z AUTO 13002KT 2SM -RA SCT008 BKN028 OVC046 12/11 A2962 RMK AO2 SLP037
SPECI
LOCATION
CYNR
DATE - TIME
302353Z
WIND
130 TRUE @ 2 KNOTS
VISIBILITY
2SM
RUNWAY VISUAL RANGE
NOT REPORTED
WEATHER
RAIN, NOT FREEZING, SLIGHT
CLOUDINESS
SCT008 BKN028 OVC046
TEMP / DEWPOINT
12 ºC / 11 ºC
ALTIMETER
29.62 in. Hg
RECENT WEATHER
NOT REPORTED
WIND SHEAR
NOT REPORTED
REMARKS
RMK AO2 SLP037
SEA LEVEL PRESSURE: hPa

CYNR

SPECI CYNR 302352Z AUTO 14002KT 2 1/2SM -RA SCT008 BKN023 OVC028 12/11 A2962 RMK AO2 SLP037
SPECI
LOCATION
CYNR
DATE - TIME
302352Z
WIND
140 TRUE @ 2 KNOTS
VISIBILITY
2 1/2SM
RUNWAY VISUAL RANGE
NOT REPORTED
WEATHER
RAIN, NOT FREEZING, SLIGHT
CLOUDINESS
SCT008 BKN023 OVC028
TEMP / DEWPOINT
12 ºC / 11 ºC
ALTIMETER
29.62 in. Hg
RECENT WEATHER
NOT REPORTED
WIND SHEAR
NOT REPORTED
REMARKS
RMK AO2 SLP037
SEA LEVEL PRESSURE: hPa

CYNR

SPECI CYNR 302351Z AUTO 00000KT 3SM -RA FEW009 SCT020 OVC027 12/11 A2962 RMK AO2 SLP037
SPECI
LOCATION
CYNR
DATE - TIME
302351Z
WIND
CALM WIND
VISIBILITY
3SM
RUNWAY VISUAL RANGE
NOT REPORTED
WEATHER
RAIN, NOT FREEZING, SLIGHT
CLOUDINESS
FEW009 SCT020 OVC027
TEMP / DEWPOINT
12 ºC / 11 ºC
ALTIMETER
29.62 in. Hg
RECENT WEATHER
NOT REPORTED
WIND SHEAR
NOT REPORTED
REMARKS
RMK AO2 SLP037
SEA LEVEL PRESSURE: hPa

Your time UTC time
 
 
Weather data provided by AXYS Technologies Inc., www.axystechnologies.com
 
Station History